sensor_id;sensor_type;location;lat;lon;timestamp;temperature;humidity
61253;DHT22;47127;47.516;8.596;2023-08-17T00:01:23;21.60;99.90
61253;DHT22;47127;47.516;8.596;2023-08-17T00:03:50;21.50;99.90
61253;DHT22;47127;47.516;8.596;2023-08-17T00:06:15;21.60;99.90
61253;DHT22;47127;47.516;8.596;2023-08-17T00:08:42;21.60;99.90
61253;DHT22;47127;47.516;8.596;2023-08-17T00:11:07;21.60;99.90
61253;DHT22;47127;47.516;8.596;2023-08-17T00:13:33;21.70;99.90
61253;DHT22;47127;47.516;8.596;2023-08-17T00:15:58;21.70;99.90
61253;DHT22;47127;47.516;8.596;2023-08-17T00:18:24;21.70;99.90
61253;DHT22;47127;47.516;8.596;2023-08-17T00:20:49;21.70;99.90
61253;DHT22;47127;47.516;8.596;2023-08-17T00:23:15;21.60;99.90
61253;DHT22;47127;47.516;8.596;2023-08-17T00:25:41;21.60;99.90
61253;DHT22;47127;47.516;8.596;2023-08-17T00:28:06;21.50;99.90
61253;DHT22;47127;47.516;8.596;2023-08-17T00:30:32;21.60;99.90
61253;DHT22;47127;47.516;8.596;2023-08-17T00:33:02;21.60;99.90
61253;DHT22;47127;47.516;8.596;2023-08-17T00:35:27;21.70;99.90
61253;DHT22;47127;47.516;8.596;2023-08-17T00:37:53;21.50;99.90
61253;DHT22;47127;47.516;8.596;2023-08-17T00:40:19;21.40;99.90
61253;DHT22;47127;47.516;8.596;2023-08-17T00:42:46;21.20;99.90
61253;DHT22;47127;47.516;8.596;2023-08-17T00:45:11;21.20;99.90
61253;DHT22;47127;47.516;8.596;2023-08-17T00:47:37;21.30;99.90
61253;DHT22;47127;47.516;8.596;2023-08-17T00:50:03;21.30;99.90
61253;DHT22;47127;47.516;8.596;2023-08-17T00:52:30;21.30;99.90
61253;DHT22;47127;47.516;8.596;2023-08-17T00:54:57;21.30;99.90
61253;DHT22;47127;47.516;8.596;2023-08-17T00:57:23;21.40;99.90
61253;DHT22;47127;47.516;8.596;2023-08-17T00:59:50;21.30;99.90
61253;DHT22;47127;47.516;8.596;2023-08-17T01:02:17;21.20;99.90
61253;DHT22;47127;47.516;8.596;2023-08-17T01:04:43;21.10;99.90
61253;DHT22;47127;47.516;8.596;2023-08-17T01:07:08;21.00;99.90
61253;DHT22;47127;47.516;8.596;2023-08-17T01:09:34;21.10;99.90
61253;DHT22;47127;47.516;8.596;2023-08-17T01:12:13;21.10;99.90
61253;DHT22;47127;47.516;8.596;2023-08-17T01:15:24;21.10;99.90
61253;DHT22;47127;47.516;8.596;2023-08-17T01:20:35;21.30;99.90
61253;DHT22;47127;47.516;8.596;2023-08-17T01:23:05;21.30;99.90
61253;DHT22;47127;47.516;8.596;2023-08-17T01:25:31;21.20;99.90
61253;DHT22;47127;47.516;8.596;2023-08-17T01:28:02;21.30;99.90
61253;DHT22;47127;47.516;8.596;2023-08-17T01:30:27;21.10;99.90
61253;DHT22;47127;47.516;8.596;2023-08-17T01:32:58;21.00;99.90
61253;DHT22;47127;47.516;8.596;2023-08-17T01:35:30;20.90;99.90
61253;DHT22;47127;47.516;8.596;2023-08-17T01:38:04;20.90;99.90
61253;DHT22;47127;47.516;8.596;2023-08-17T01:40:33;20.80;99.90
61253;DHT22;47127;47.516;8.596;2023-08-17T01:42:59;20.60;99.90
61253;DHT22;47127;47.516;8.596;2023-08-17T01:45:25;20.60;99.90
61253;DHT22;47127;47.516;8.596;2023-08-17T01:47:51;20.60;99.90
61253;DHT22;47127;47.516;8.596;2023-08-17T01:50:16;20.80;99.90
61253;DHT22;47127;47.516;8.596;2023-08-17T01:52:42;20.90;99.90
61253;DHT22;47127;47.516;8.596;2023-08-17T01:55:08;21.00;99.90
61253;DHT22;47127;47.516;8.596;2023-08-17T01:57:34;21.10;99.90
61253;DHT22;47127;47.516;8.596;2023-08-17T02:00:01;21.10;99.90
61253;DHT22;47127;47.516;8.596;2023-08-17T02:02:26;21.10;99.90
61253;DHT22;47127;47.516;8.596;2023-08-17T02:04:52;20.90;99.90
61253;DHT22;47127;47.516;8.596;2023-08-17T02:07:17;20.90;99.90
61253;DHT22;47127;47.516;8.596;2023-08-17T02:09:43;20.90;99.90
61253;DHT22;47127;47.516;8.596;2023-08-17T02:12:08;20.90;99.90
61253;DHT22;47127;47.516;8.596;2023-08-17T02:14:34;20.90;99.90
61253;DHT22;47127;47.516;8.596;2023-08-17T02:16:59;20.80;99.90
61253;DHT22;47127;47.516;8.596;2023-08-17T02:19:25;20.80;99.90
61253;DHT22;47127;47.516;8.596;2023-08-17T02:21:51;20.80;99.90
61253;DHT22;47127;47.516;8.596;2023-08-17T02:24:16;20.60;99.90
61253;DHT22;47127;47.516;8.596;2023-08-17T02:26:42;20.60;99.90
61253;DHT22;47127;47.516;8.596;2023-08-17T02:29:07;20.60;99.90
61253;DHT22;47127;47.516;8.596;2023-08-17T02:31:33;20.60;99.90
61253;DHT22;47127;47.516;8.596;2023-08-17T02:33:58;20.60;99.90
61253;DHT22;47127;47.516;8.596;2023-08-17T02:36:30;20.60;99.90
61253;DHT22;47127;47.516;8.596;2023-08-17T02:38:55;20.60;99.90
61253;DHT22;47127;47.516;8.596;2023-08-17T02:41:21;20.60;99.90
61253;DHT22;47127;47.516;8.596;2023-08-17T02:43:47;20.60;99.90
61253;DHT22;47127;47.516;8.596;2023-08-17T02:46:12;20.60;99.90
61253;DHT22;47127;47.516;8.596;2023-08-17T02:48:38;20.60;99.90
61253;DHT22;47127;47.516;8.596;2023-08-17T02:51:03;20.70;99.90
61253;DHT22;47127;47.516;8.596;2023-08-17T02:53:29;20.70;99.90
61253;DHT22;47127;47.516;8.596;2023-08-17T02:55:54;20.80;99.90
61253;DHT22;47127;47.516;8.596;2023-08-17T02:58:20;20.90;99.90
61253;DHT22;47127;47.516;8.596;2023-08-17T03:00:45;20.80;99.90
61253;DHT22;47127;47.516;8.596;2023-08-17T03:03:11;20.80;99.90
61253;DHT22;47127;47.516;8.596;2023-08-17T03:05:36;20.80;99.90
61253;DHT22;47127;47.516;8.596;2023-08-17T03:08:02;20.80;99.90
61253;DHT22;47127;47.516;8.596;2023-08-17T03:10:29;20.80;99.90
61253;DHT22;47127;47.516;8.596;2023-08-17T03:12:55;20.60;99.90
61253;DHT22;47127;47.516;8.596;2023-08-17T03:15:20;20.50;99.90
61253;DHT22;47127;47.516;8.596;2023-08-17T03:17:46;20.40;99.90
61253;DHT22;47127;47.516;8.596;2023-08-17T03:20:11;20.30;99.90
61253;DHT22;47127;47.516;8.596;2023-08-17T03:22:37;20.30;99.90
61253;DHT22;47127;47.516;8.596;2023-08-17T03:25:02;20.30;99.90
61253;DHT22;47127;47.516;8.596;2023-08-17T03:27:28;20.30;99.90
61253;DHT22;47127;47.516;8.596;2023-08-17T03:29:54;20.40;99.90
61253;DHT22;47127;47.516;8.596;2023-08-17T03:32:20;20.50;99.90
61253;DHT22;47127;47.516;8.596;2023-08-17T03:34:45;20.50;99.90
61253;DHT22;47127;47.516;8.596;2023-08-17T03:37:11;20.50;99.90
61253;DHT22;47127;47.516;8.596;2023-08-17T03:39:36;20.50;99.90
61253;DHT22;47127;47.516;8.596;2023-08-17T03:42:02;20.40;99.90
61253;DHT22;47127;47.516;8.596;2023-08-17T03:44:28;20.30;99.90
61253;DHT22;47127;47.516;8.596;2023-08-17T03:46:53;20.30;99.90
61253;DHT22;47127;47.516;8.596;2023-08-17T03:49:19;20.30;99.90
61253;DHT22;47127;47.516;8.596;2023-08-17T03:51:45;20.10;99.90
61253;DHT22;47127;47.516;8.596;2023-08-17T03:54:12;20.10;99.90
61253;DHT22;47127;47.516;8.596;2023-08-17T03:56:38;20.00;99.90
61253;DHT22;47127;47.516;8.596;2023-08-17T03:59:03;20.00;99.90
61253;DHT22;47127;47.516;8.596;2023-08-17T04:01:29;20.10;99.90
61253;DHT22;47127;47.516;8.596;2023-08-17T04:03:55;20.00;99.90
61253;DHT22;47127;47.516;8.596;2023-08-17T04:06:20;20.00;99.90
61253;DHT22;47127;47.516;8.596;2023-08-17T04:08:46;20.00;99.90
61253;DHT22;47127;47.516;8.596;2023-08-17T04:11:11;19.90;99.90
61253;DHT22;47127;47.516;8.596;2023-08-17T04:13:37;19.90;99.90
61253;DHT22;47127;47.516;8.596;2023-08-17T04:16:03;19.90;99.90
61253;DHT22;47127;47.516;8.596;2023-08-17T04:18:28;19.90;99.90
61253;DHT22;47127;47.516;8.596;2023-08-17T04:20:54;19.90;99.90
61253;DHT22;47127;47.516;8.596;2023-08-17T04:23:19;19.80;99.90
61253;DHT22;47127;47.516;8.596;2023-08-17T04:25:47;19.90;99.90
61253;DHT22;47127;47.516;8.596;2023-08-17T04:28:13;19.90;99.90
61253;DHT22;47127;47.516;8.596;2023-08-17T04:30:38;19.90;99.90
61253;DHT22;47127;47.516;8.596;2023-08-17T04:33:05;19.90;99.90
61253;DHT22;47127;47.516;8.596;2023-08-17T04:35:30;20.00;99.90
61253;DHT22;47127;47.516;8.596;2023-08-17T04:37:56;20.00;99.90
61253;DHT22;47127;47.516;8.596;2023-08-17T04:40:21;20.00;99.90
61253;DHT22;47127;47.516;8.596;2023-08-17T04:42:47;20.10;99.90
61253;DHT22;47127;47.516;8.596;2023-08-17T04:45:13;20.00;99.90
61253;DHT22;47127;47.516;8.596;2023-08-17T04:47:39;20.00;99.90
61253;DHT22;47127;47.516;8.596;2023-08-17T04:50:05;20.00;99.90
61253;DHT22;47127;47.516;8.596;2023-08-17T04:52:31;20.10;99.90
61253;DHT22;47127;47.516;8.596;2023-08-17T04:54:57;20.10;99.90
61253;DHT22;47127;47.516;8.596;2023-08-17T04:57:22;20.00;99.90
61253;DHT22;47127;47.516;8.596;2023-08-17T04:59:48;20.10;99.90
61253;DHT22;47127;47.516;8.596;2023-08-17T05:02:13;20.10;99.90
61253;DHT22;47127;47.516;8.596;2023-08-17T05:04:40;20.00;99.90
61253;DHT22;47127;47.516;8.596;2023-08-17T05:07:05;20.10;99.90
61253;DHT22;47127;47.516;8.596;2023-08-17T05:09:31;20.10;99.90
61253;DHT22;47127;47.516;8.596;2023-08-17T05:11:57;20.00;99.90
61253;DHT22;47127;47.516;8.596;2023-08-17T05:14:22;20.10;99.90
61253;DHT22;47127;47.516;8.596;2023-08-17T05:16:48;20.10;99.90
61253;DHT22;47127;47.516;8.596;2023-08-17T05:19:13;20.20;99.90
61253;DHT22;47127;47.516;8.596;2023-08-17T05:21:39;20.30;99.90
61253;DHT22;47127;47.516;8.596;2023-08-17T05:24:06;20.30;99.90
61253;DHT22;47127;47.516;8.596;2023-08-17T05:26:32;20.20;99.90
61253;DHT22;47127;47.516;8.596;2023-08-17T05:28:57;20.20;99.90
61253;DHT22;47127;47.516;8.596;2023-08-17T05:31:23;20.20;99.90
61253;DHT22;47127;47.516;8.596;2023-08-17T05:33:48;20.20;99.90
61253;DHT22;47127;47.516;8.596;2023-08-17T05:36:14;20.30;99.90
61253;DHT22;47127;47.516;8.596;2023-08-17T05:38:39;20.30;99.90
61253;DHT22;47127;47.516;8.596;2023-08-17T05:41:05;20.40;99.90
61253;DHT22;47127;47.516;8.596;2023-08-17T05:43:31;20.40;99.90
61253;DHT22;47127;47.516;8.596;2023-08-17T05:45:59;20.50;99.90
61253;DHT22;47127;47.516;8.596;2023-08-17T05:48:25;20.60;99.90
61253;DHT22;47127;47.516;8.596;2023-08-17T05:50:50;20.80;99.90
61253;DHT22;47127;47.516;8.596;2023-08-17T05:53:16;20.90;99.90
61253;DHT22;47127;47.516;8.596;2023-08-17T05:55:42;20.90;99.90
61253;DHT22;47127;47.516;8.596;2023-08-17T05:58:07;21.00;99.90
61253;DHT22;47127;47.516;8.596;2023-08-17T06:00:33;20.90;99.90
61253;DHT22;47127;47.516;8.596;2023-08-17T06:02:58;21.00;99.90
61253;DHT22;47127;47.516;8.596;2023-08-17T06:05:27;21.10;99.90
61253;DHT22;47127;47.516;8.596;2023-08-17T06:07:54;21.30;99.90
61253;DHT22;47127;47.516;8.596;2023-08-17T06:10:20;21.40;99.90
61253;DHT22;47127;47.516;8.596;2023-08-17T06:12:46;21.40;99.90
61253;DHT22;47127;47.516;8.596;2023-08-17T06:15:13;21.40;99.90
61253;DHT22;47127;47.516;8.596;2023-08-17T06:17:39;21.50;99.90
61253;DHT22;47127;47.516;8.596;2023-08-17T06:20:05;21.60;99.90
61253;DHT22;47127;47.516;8.596;2023-08-17T06:22:32;21.50;99.90
61253;DHT22;47127;47.516;8.596;2023-08-17T06:24:58;21.60;99.90
61253;DHT22;47127;47.516;8.596;2023-08-17T06:27:23;21.60;99.90
61253;DHT22;47127;47.516;8.596;2023-08-17T06:29:49;21.50;99.90
61253;DHT22;47127;47.516;8.596;2023-08-17T06:32:14;21.50;99.90
61253;DHT22;47127;47.516;8.596;2023-08-17T06:34:40;21.50;99.90
61253;DHT22;47127;47.516;8.596;2023-08-17T06:37:05;21.50;99.90
61253;DHT22;47127;47.516;8.596;2023-08-17T06:39:31;21.60;99.90
61253;DHT22;47127;47.516;8.596;2023-08-17T06:41:56;21.60;99.90
61253;DHT22;47127;47.516;8.596;2023-08-17T06:44:22;21.80;99.90
61253;DHT22;47127;47.516;8.596;2023-08-17T06:46:48;21.90;99.90
61253;DHT22;47127;47.516;8.596;2023-08-17T06:49:13;22.00;99.90
61253;DHT22;47127;47.516;8.596;2023-08-17T06:51:39;22.10;99.90
61253;DHT22;47127;47.516;8.596;2023-08-17T06:54:07;22.30;99.90
61253;DHT22;47127;47.516;8.596;2023-08-17T06:56:33;22.30;99.90
61253;DHT22;47127;47.516;8.596;2023-08-17T06:58:58;22.50;99.90
61253;DHT22;47127;47.516;8.596;2023-08-17T07:01:24;22.60;99.90
61253;DHT22;47127;47.516;8.596;2023-08-17T07:03:49;22.60;99.90
61253;DHT22;47127;47.516;8.596;2023-08-17T07:06:15;22.70;99.90
61253;DHT22;47127;47.516;8.596;2023-08-17T07:08:41;22.70;99.90
61253;DHT22;47127;47.516;8.596;2023-08-17T07:11:06;22.80;99.90
61253;DHT22;47127;47.516;8.596;2023-08-17T07:13:34;22.80;99.90
61253;DHT22;47127;47.516;8.596;2023-08-17T07:16:00;22.90;99.90
61253;DHT22;47127;47.516;8.596;2023-08-17T07:18:26;23.00;99.90
61253;DHT22;47127;47.516;8.596;2023-08-17T07:20:51;23.10;99.90
61253;DHT22;47127;47.516;8.596;2023-08-17T07:23:17;23.20;99.90
61253;DHT22;47127;47.516;8.596;2023-08-17T07:25:43;23.30;99.90
61253;DHT22;47127;47.516;8.596;2023-08-17T07:28:09;23.40;99.90
61253;DHT22;47127;47.516;8.596;2023-08-17T07:30:35;23.50;99.90
61253;DHT22;47127;47.516;8.596;2023-08-17T07:33:01;23.60;99.90
61253;DHT22;47127;47.516;8.596;2023-08-17T07:35:26;23.60;99.90
61253;DHT22;47127;47.516;8.596;2023-08-17T07:37:52;23.60;99.90
61253;DHT22;47127;47.516;8.596;2023-08-17T07:40:17;23.70;99.90
61253;DHT22;47127;47.516;8.596;2023-08-17T07:42:45;23.80;99.90
61253;DHT22;47127;47.516;8.596;2023-08-17T07:45:11;23.90;99.90
61253;DHT22;47127;47.516;8.596;2023-08-17T07:47:37;24.00;99.90
61253;DHT22;47127;47.516;8.596;2023-08-17T07:50:04;24.00;99.90
61253;DHT22;47127;47.516;8.596;2023-08-17T07:52:30;23.90;99.90
61253;DHT22;47127;47.516;8.596;2023-08-17T07:54:56;24.00;99.90
61253;DHT22;47127;47.516;8.596;2023-08-17T07:57:21;24.10;99.90
61253;DHT22;47127;47.516;8.596;2023-08-17T07:59:47;24.10;99.90
61253;DHT22;47127;47.516;8.596;2023-08-17T08:02:12;24.10;99.90
61253;DHT22;47127;47.516;8.596;2023-08-17T08:04:38;24.10;99.90
61253;DHT22;47127;47.516;8.596;2023-08-17T08:07:04;24.10;99.90
61253;DHT22;47127;47.516;8.596;2023-08-17T08:09:29;24.10;99.90
61253;DHT22;47127;47.516;8.596;2023-08-17T08:11:55;24.30;99.90
61253;DHT22;47127;47.516;8.596;2023-08-17T08:14:20;24.50;99.90
61253;DHT22;47127;47.516;8.596;2023-08-17T08:16:46;24.70;99.90
61253;DHT22;47127;47.516;8.596;2023-08-17T08:19:12;24.80;99.90
61253;DHT22;47127;47.516;8.596;2023-08-17T08:21:38;24.90;99.90
61253;DHT22;47127;47.516;8.596;2023-08-17T08:24:04;24.90;99.90
61253;DHT22;47127;47.516;8.596;2023-08-17T08:26:30;25.00;99.90
61253;DHT22;47127;47.516;8.596;2023-08-17T08:28:55;25.10;99.90
61253;DHT22;47127;47.516;8.596;2023-08-17T08:31:21;25.20;99.90
61253;DHT22;47127;47.516;8.596;2023-08-17T08:33:46;25.10;99.90
61253;DHT22;47127;47.516;8.596;2023-08-17T08:36:12;25.10;99.90
61253;DHT22;47127;47.516;8.596;2023-08-17T08:38:37;25.20;99.90
61253;DHT22;47127;47.516;8.596;2023-08-17T08:41:03;25.30;99.90
61253;DHT22;47127;47.516;8.596;2023-08-17T08:43:29;25.30;99.90
61253;DHT22;47127;47.516;8.596;2023-08-17T08:45:55;25.40;99.90
61253;DHT22;47127;47.516;8.596;2023-08-17T08:48:22;25.40;99.90
61253;DHT22;47127;47.516;8.596;2023-08-17T08:50:50;25.60;99.90
61253;DHT22;47127;47.516;8.596;2023-08-17T08:53:17;25.80;99.90
61253;DHT22;47127;47.516;8.596;2023-08-17T08:55:57;25.90;99.90
61253;DHT22;47127;47.516;8.596;2023-08-17T08:58:25;26.10;99.90
61253;DHT22;47127;47.516;8.596;2023-08-17T09:00:50;26.30;99.90
61253;DHT22;47127;47.516;8.596;2023-08-17T09:03:17;26.40;99.90
61253;DHT22;47127;47.516;8.596;2023-08-17T09:05:47;26.40;99.90
61253;DHT22;47127;47.516;8.596;2023-08-17T09:08:15;26.60;99.90
61253;DHT22;47127;47.516;8.596;2023-08-17T09:10:41;26.60;99.90
61253;DHT22;47127;47.516;8.596;2023-08-17T09:13:07;26.70;99.90
61253;DHT22;47127;47.516;8.596;2023-08-17T09:15:33;26.60;99.90
61253;DHT22;47127;47.516;8.596;2023-08-17T09:17:59;26.60;99.90
61253;DHT22;47127;47.516;8.596;2023-08-17T09:20:46;26.40;99.90
61253;DHT22;47127;47.516;8.596;2023-08-17T09:23:14;26.40;99.90
61253;DHT22;47127;47.516;8.596;2023-08-17T09:25:41;26.20;99.90
61253;DHT22;47127;47.516;8.596;2023-08-17T09:28:15;26.10;99.90
61253;DHT22;47127;47.516;8.596;2023-08-17T09:33:23;26.00;99.90
61253;DHT22;47127;47.516;8.596;2023-08-17T09:35:50;26.00;99.90
61253;DHT22;47127;47.516;8.596;2023-08-17T09:38:17;25.90;99.90
61253;DHT22;47127;47.516;8.596;2023-08-17T09:40:42;25.80;99.90
61253;DHT22;47127;47.516;8.596;2023-08-17T09:43:09;25.90;99.90
61253;DHT22;47127;47.516;8.596;2023-08-17T09:45:37;25.90;99.90
61253;DHT22;47127;47.516;8.596;2023-08-17T09:48:03;26.10;99.90
61253;DHT22;47127;47.516;8.596;2023-08-17T09:50:29;26.20;99.90
61253;DHT22;47127;47.516;8.596;2023-08-17T09:52:54;26.40;99.90
61253;DHT22;47127;47.516;8.596;2023-08-17T09:55:22;26.30;99.90
61253;DHT22;47127;47.516;8.596;2023-08-17T09:57:49;26.40;99.90
61253;DHT22;47127;47.516;8.596;2023-08-17T10:00:16;26.50;99.90
61253;DHT22;47127;47.516;8.596;2023-08-17T10:02:44;26.70;99.90
61253;DHT22;47127;47.516;8.596;2023-08-17T10:05:13;26.90;99.90
61253;DHT22;47127;47.516;8.596;2023-08-17T10:07:46;27.00;99.90
61253;DHT22;47127;47.516;8.596;2023-08-17T10:10:13;27.00;99.90
61253;DHT22;47127;47.516;8.596;2023-08-17T10:12:51;27.00;99.90
61253;DHT22;47127;47.516;8.596;2023-08-17T10:15:25;27.10;99.90
61253;DHT22;47127;47.516;8.596;2023-08-17T10:18:26;27.20;99.90
61253;DHT22;47127;47.516;8.596;2023-08-17T10:21:07;27.10;99.90
61253;DHT22;47127;47.516;8.596;2023-08-17T10:23:35;27.30;99.90
61253;DHT22;47127;47.516;8.596;2023-08-17T10:26:02;27.20;99.90
61253;DHT22;47127;47.516;8.596;2023-08-17T10:28:29;27.20;99.90
61253;DHT22;47127;47.516;8.596;2023-08-17T10:30:56;27.40;99.90
61253;DHT22;47127;47.516;8.596;2023-08-17T10:33:21;27.40;99.90
61253;DHT22;47127;47.516;8.596;2023-08-17T10:35:47;27.40;99.90
61253;DHT22;47127;47.516;8.596;2023-08-17T10:38:15;27.50;99.90
61253;DHT22;47127;47.516;8.596;2023-08-17T10:40:42;27.80;99.90
61253;DHT22;47127;47.516;8.596;2023-08-17T10:43:08;27.90;99.90
61253;DHT22;47127;47.516;8.596;2023-08-17T10:45:35;28.00;99.90
61253;DHT22;47127;47.516;8.596;2023-08-17T10:50:32;28.10;99.90
61253;DHT22;47127;47.516;8.596;2023-08-17T10:53:10;28.10;99.90
61253;DHT22;47127;47.516;8.596;2023-08-17T10:55:40;28.20;98.60
61253;DHT22;47127;47.516;8.596;2023-08-17T10:58:07;28.10;99.70
61253;DHT22;47127;47.516;8.596;2023-08-17T11:00:39;28.10;99.40
61253;DHT22;47127;47.516;8.596;2023-08-17T11:03:09;28.10;97.90
61253;DHT22;47127;47.516;8.596;2023-08-17T11:08:34;28.20;96.50
61253;DHT22;47127;47.516;8.596;2023-08-17T11:11:14;28.10;96.40
61253;DHT22;47127;47.516;8.596;2023-08-17T11:13:44;28.10;96.20
61253;DHT22;47127;47.516;8.596;2023-08-17T11:16:13;28.20;97.10
61253;DHT22;47127;47.516;8.596;2023-08-17T11:18:39;28.20;97.50
61253;DHT22;47127;47.516;8.596;2023-08-17T11:21:07;28.50;96.90
61253;DHT22;47127;47.516;8.596;2023-08-17T11:23:35;28.50;96.40
61253;DHT22;47127;47.516;8.596;2023-08-17T11:26:01;28.70;96.60
61253;DHT22;47127;47.516;8.596;2023-08-17T11:28:30;29.00;96.30
61253;DHT22;47127;47.516;8.596;2023-08-17T11:31:05;29.40;95.80
61253;DHT22;47127;47.516;8.596;2023-08-17T11:33:32;29.50;94.60
61253;DHT22;47127;47.516;8.596;2023-08-17T11:35:59;29.70;93.90
61253;DHT22;47127;47.516;8.596;2023-08-17T11:38:26;29.60;91.90
61253;DHT22;47127;47.516;8.596;2023-08-17T11:40:53;29.80;92.70
61253;DHT22;47127;47.516;8.596;2023-08-17T11:43:19;29.90;92.30
61253;DHT22;47127;47.516;8.596;2023-08-17T11:45:46;29.80;93.40
61253;DHT22;47127;47.516;8.596;2023-08-17T11:48:11;30.00;93.30
61253;DHT22;47127;47.516;8.596;2023-08-17T11:50:38;30.20;93.50
61253;DHT22;47127;47.516;8.596;2023-08-17T11:53:04;30.30;91.50
61253;DHT22;47127;47.516;8.596;2023-08-17T11:55:30;29.80;91.40
61253;DHT22;47127;47.516;8.596;2023-08-17T11:57:55;29.60;90.50
61253;DHT22;47127;47.516;8.596;2023-08-17T12:00:22;29.40;91.00
61253;DHT22;47127;47.516;8.596;2023-08-17T12:02:49;29.20;90.60
61253;DHT22;47127;47.516;8.596;2023-08-17T12:05:22;29.00;92.10
61253;DHT22;47127;47.516;8.596;2023-08-17T12:07:49;29.20;91.90
61253;DHT22;47127;47.516;8.596;2023-08-17T12:10:15;29.20;92.30
61253;DHT22;47127;47.516;8.596;2023-08-17T12:12:41;29.20;91.50
61253;DHT22;47127;47.516;8.596;2023-08-17T12:15:06;29.10;92.30
61253;DHT22;47127;47.516;8.596;2023-08-17T12:17:32;29.20;91.70
61253;DHT22;47127;47.516;8.596;2023-08-17T12:19:59;29.10;92.20
61253;DHT22;47127;47.516;8.596;2023-08-17T12:22:26;29.10;91.90
61253;DHT22;47127;47.516;8.596;2023-08-17T12:24:52;28.80;91.60
61253;DHT22;47127;47.516;8.596;2023-08-17T12:27:18;28.80;91.90
61253;DHT22;47127;47.516;8.596;2023-08-17T12:29:51;28.90;92.10
61253;DHT22;47127;47.516;8.596;2023-08-17T12:32:18;28.70;91.80
61253;DHT22;47127;47.516;8.596;2023-08-17T12:34:44;28.60;90.70
61253;DHT22;47127;47.516;8.596;2023-08-17T12:37:10;28.50;90.40
61253;DHT22;47127;47.516;8.596;2023-08-17T12:39:36;28.50;90.50
61253;DHT22;47127;47.516;8.596;2023-08-17T12:42:05;28.70;91.70
61253;DHT22;47127;47.516;8.596;2023-08-17T12:44:31;28.90;92.40
61253;DHT22;47127;47.516;8.596;2023-08-17T12:46:57;28.70;92.00
61253;DHT22;47127;47.516;8.596;2023-08-17T12:49:25;28.70;92.50
61253;DHT22;47127;47.516;8.596;2023-08-17T12:51:51;28.90;92.20
61253;DHT22;47127;47.516;8.596;2023-08-17T12:54:17;29.00;92.30
61253;DHT22;47127;47.516;8.596;2023-08-17T12:56:44;29.10;91.70
61253;DHT22;47127;47.516;8.596;2023-08-17T12:59:13;29.10;90.90
61253;DHT22;47127;47.516;8.596;2023-08-17T13:01:38;29.30;90.90
61253;DHT22;47127;47.516;8.596;2023-08-17T13:04:05;29.50;90.90
61253;DHT22;47127;47.516;8.596;2023-08-17T13:06:31;29.60;91.20
61253;DHT22;47127;47.516;8.596;2023-08-17T13:08:56;29.90;90.90
61253;DHT22;47127;47.516;8.596;2023-08-17T13:11:22;30.10;91.30
61253;DHT22;47127;47.516;8.596;2023-08-17T13:13:48;30.20;91.30
61253;DHT22;47127;47.516;8.596;2023-08-17T13:16:14;30.20;91.30
61253;DHT22;47127;47.516;8.596;2023-08-17T13:18:39;30.20;92.10
61253;DHT22;47127;47.516;8.596;2023-08-17T13:21:05;29.90;91.70
61253;DHT22;47127;47.516;8.596;2023-08-17T13:23:30;29.80;91.60
61253;DHT22;47127;47.516;8.596;2023-08-17T13:25:56;29.70;92.20
61253;DHT22;47127;47.516;8.596;2023-08-17T13:28:22;29.60;92.60
61253;DHT22;47127;47.516;8.596;2023-08-17T13:30:47;29.60;92.40
61253;DHT22;47127;47.516;8.596;2023-08-17T13:33:13;29.30;92.80
61253;DHT22;47127;47.516;8.596;2023-08-17T13:35:39;29.10;92.50
61253;DHT22;47127;47.516;8.596;2023-08-17T13:38:05;29.00;92.90
61253;DHT22;47127;47.516;8.596;2023-08-17T13:40:33;28.80;93.10
61253;DHT22;47127;47.516;8.596;2023-08-17T13:43:01;28.80;93.30
61253;DHT22;47127;47.516;8.596;2023-08-17T13:45:28;28.60;93.30
61253;DHT22;47127;47.516;8.596;2023-08-17T13:47:54;28.50;92.90
61253;DHT22;47127;47.516;8.596;2023-08-17T13:50:19;28.50;93.00
61253;DHT22;47127;47.516;8.596;2023-08-17T13:52:45;28.40;93.20
61253;DHT22;47127;47.516;8.596;2023-08-17T13:55:12;28.50;92.50
61253;DHT22;47127;47.516;8.596;2023-08-17T13:57:37;28.30;92.60
61253;DHT22;47127;47.516;8.596;2023-08-17T14:00:03;28.30;93.20
61253;DHT22;47127;47.516;8.596;2023-08-17T14:02:29;28.40;92.30
61253;DHT22;47127;47.516;8.596;2023-08-17T14:04:55;28.50;92.00
61253;DHT22;47127;47.516;8.596;2023-08-17T14:07:21;28.50;91.30
61253;DHT22;47127;47.516;8.596;2023-08-17T14:09:46;28.60;91.70
61253;DHT22;47127;47.516;8.596;2023-08-17T14:12:12;28.60;90.00
61253;DHT22;47127;47.516;8.596;2023-08-17T14:14:38;28.60;90.20
61253;DHT22;47127;47.516;8.596;2023-08-17T14:17:04;28.50;90.30
61253;DHT22;47127;47.516;8.596;2023-08-17T14:19:31;28.40;89.10
61253;DHT22;47127;47.516;8.596;2023-08-17T14:21:57;28.50;88.20
61253;DHT22;47127;47.516;8.596;2023-08-17T14:24:26;28.40;89.00
61253;DHT22;47127;47.516;8.596;2023-08-17T14:26:52;28.50;90.40
61253;DHT22;47127;47.516;8.596;2023-08-17T14:29:17;28.50;90.60
61253;DHT22;47127;47.516;8.596;2023-08-17T14:31:43;28.20;91.20
61253;DHT22;47127;47.516;8.596;2023-08-17T14:34:08;28.00;92.50
61253;DHT22;47127;47.516;8.596;2023-08-17T14:36:34;27.80;93.30
61253;DHT22;47127;47.516;8.596;2023-08-17T14:38:59;27.60;93.80
61253;DHT22;47127;47.516;8.596;2023-08-17T14:41:25;27.50;94.10
61253;DHT22;47127;47.516;8.596;2023-08-17T14:44:00;27.50;94.10
61253;DHT22;47127;47.516;8.596;2023-08-17T14:46:26;27.50;94.30
61253;DHT22;47127;47.516;8.596;2023-08-17T14:48:52;27.40;94.90
61253;DHT22;47127;47.516;8.596;2023-08-17T14:51:17;27.40;95.20
61253;DHT22;47127;47.516;8.596;2023-08-17T14:53:43;27.30;94.90
61253;DHT22;47127;47.516;8.596;2023-08-17T14:56:09;27.20;95.10
61253;DHT22;47127;47.516;8.596;2023-08-17T14:58:35;27.10;94.90
61253;DHT22;47127;47.516;8.596;2023-08-17T15:01:01;27.00;94.30
61253;DHT22;47127;47.516;8.596;2023-08-17T15:03:26;26.80;94.20
61253;DHT22;47127;47.516;8.596;2023-08-17T15:05:52;26.70;94.30
61253;DHT22;47127;47.516;8.596;2023-08-17T15:08:17;26.60;94.30
61253;DHT22;47127;47.516;8.596;2023-08-17T15:10:43;26.50;94.20
61253;DHT22;47127;47.516;8.596;2023-08-17T15:13:09;26.50;94.40
61253;DHT22;47127;47.516;8.596;2023-08-17T15:15:34;26.40;93.50
61253;DHT22;47127;47.516;8.596;2023-08-17T15:18:02;26.30;93.70
61253;DHT22;47127;47.516;8.596;2023-08-17T15:20:28;26.10;93.70
61253;DHT22;47127;47.516;8.596;2023-08-17T15:22:55;26.00;93.70
61253;DHT22;47127;47.516;8.596;2023-08-17T15:25:21;25.90;93.70
61253;DHT22;47127;47.516;8.596;2023-08-17T15:27:46;25.90;94.10
61253;DHT22;47127;47.516;8.596;2023-08-17T15:30:12;25.70;94.10
61253;DHT22;47127;47.516;8.596;2023-08-17T15:32:37;25.60;94.10
61253;DHT22;47127;47.516;8.596;2023-08-17T15:35:03;25.60;94.20
61253;DHT22;47127;47.516;8.596;2023-08-17T15:37:29;25.60;94.20